PWSweather.com
Personal Weather Stations
Station Observations
KCTHAMDEN
Dunbar Hill, Hamden, CT 06514

Dunbar HillHamden, CT 06514

Lat: 41.365437, Lon: -72.956532

Elevation: 200

Station Type: Davis Vantage Pro2+

www.hamdenweather.com

High Low Average
Temperature 85.4°F29.7°C 69.2°F20.7°C 75.4°F24.1°C
Dew Point 76.9°F24.9°C 67.7°F19.8°C 71.2°F21.8°C
Winds 3.8 mph 6.1 kmh Calm Calm 1.0 mph SSE1.6 kmh SSE
Wind Gusts 7.0 mph11.3 kmh -- 1.0 mph1.6 kmh
Humidity 99% 62% 88%
Pressure 29.91 in1012.9 mb 29.80 in1009.1 mb -
Precipitation 0.00 in0.0 mm - -
Hour Temp Dew Point Humidity Winds Wind Gusts Pressure Precip Precip Rate Daily Precip Total
12:00 AM 72.1°F22.3°C 71.5°F21.9°C 98% Calm Calm -- 29.91 in1012.9 mb - 0.00 in0.0 mm 0.00 in0.0 mm
12:15 AM 72.3°F22.4°C 71.7°F22.1°C 98% Calm Calm -- 29.91 in1012.9 mb - 0.00 in0.0 mm 0.00 in0.0 mm
12:30 AM 72.2°F22.3°C 71.6°F22.0°C 98% Calm Calm -- 29.91 in1012.9 mb - 0.00 in0.0 mm 0.00 in0.0 mm
12:45 AM 72.2°F22.3°C 71.6°F22.0°C 98% Calm Calm -- 29.91 in1012.9 mb - 0.00 in0.0 mm 0.00 in0.0 mm
01:00 AM 72.2°F22.3°C 71.6°F22.0°C 98% Calm Calm -- 29.91 in1012.9 mb - 0.00 in0.0 mm 0.00 in0.0 mm
01:15 AM 71.9°F22.2°C 71.3°F21.8°C 98% Calm Calm -- 29.90 in1012.5 mb - 0.00 in0.0 mm 0.00 in0.0 mm
01:30 AM 71.8°F22.1°C 71.2°F21.8°C 98% Calm Calm -- 29.90 in1012.5 mb - 0.00 in0.0 mm 0.00 in0.0 mm
01:45 AM 71.7°F22.1°C 71.1°F21.7°C 98% Calm Calm -- 29.90 in1012.5 mb - 0.00 in0.0 mm 0.00 in0.0 mm
02:00 AM 71.5°F21.9°C 70.9°F21.6°C 98% Calm Calm -- 29.89 in1012.2 mb - 0.00 in0.0 mm 0.00 in0.0 mm
02:15 AM 71.1°F21.7°C 70.5°F21.4°C 98% Calm Calm -- 29.89 in1012.2 mb - 0.00 in0.0 mm 0.00 in0.0 mm
02:30 AM 70.8°F21.6°C 70.2°F21.2°C 98% Calm Calm -- 29.89 in1012.2 mb - 0.00 in0.0 mm 0.00 in0.0 mm
02:45 AM 70.5°F21.4°C 69.9°F21.1°C 98% Calm Calm -- 29.89 in1012.2 mb - 0.00 in0.0 mm 0.00 in0.0 mm
03:00 AM 70.2°F21.2°C 69.6°F20.9°C 98% Calm Calm -- 29.88 in1011.9 mb - 0.00 in0.0 mm 0.00 in0.0 mm
03:15 AM 70.0°F21.1°C 69.4°F20.8°C 98% Calm Calm -- 29.88 in1011.9 mb - 0.00 in0.0 mm 0.00 in0.0 mm
03:30 AM 69.6°F20.9°C 68.7°F20.4°C 97% Calm Calm -- 29.88 in1011.9 mb - 0.00 in0.0 mm 0.00 in0.0 mm
03:45 AM 69.3°F20.7°C 68.7°F20.4°C 98% Calm Calm -- 29.88 in1011.9 mb - 0.00 in0.0 mm 0.00 in0.0 mm
04:00 AM 69.2°F20.7°C 68.6°F20.3°C 98% Calm Calm -- 29.88 in1011.9 mb - 0.00 in0.0 mm 0.00 in0.0 mm
04:15 AM 69.3°F20.7°C 68.7°F20.4°C 98% Calm Calm -- 29.88 in1011.9 mb - 0.00 in0.0 mm 0.00 in0.0 mm
04:30 AM 69.5°F20.8°C 68.9°F20.5°C 98% Calm Calm -- 29.87 in1011.5 mb - 0.00 in0.0 mm 0.00 in0.0 mm
04:45 AM 69.8°F21.0°C 69.2°F20.7°C 98% Calm Calm -- 29.87 in1011.5 mb - 0.00 in0.0 mm 0.00 in0.0 mm
05:00 AM 69.9°F21.1°C 69.3°F20.7°C 98% Calm Calm -- 29.88 in1011.9 mb - 0.00 in0.0 mm 0.00 in0.0 mm
05:15 AM 70.1°F21.2°C 69.5°F20.8°C 98% Calm Calm -- 29.88 in1011.9 mb - 0.00 in0.0 mm 0.00 in0.0 mm
05:30 AM 70.1°F21.2°C 69.5°F20.8°C 98% Calm Calm -- 29.88 in1011.9 mb - 0.00 in0.0 mm 0.00 in0.0 mm
05:45 AM 70.2°F21.2°C 69.6°F20.9°C 98% Calm Calm -- 29.88 in1011.9 mb - 0.00 in0.0 mm 0.00 in0.0 mm
06:00 AM 70.1°F21.2°C 69.5°F20.8°C 98% Calm Calm -- 29.89 in1012.2 mb - 0.00 in0.0 mm 0.00 in0.0 mm
06:15 AM 70.2°F21.2°C 69.6°F20.9°C 98% Calm Calm -- 29.89 in1012.2 mb - 0.00 in0.0 mm 0.00 in0.0 mm
06:30 AM 70.3°F21.3°C 69.7°F20.9°C 98% Calm Calm -- 29.89 in1012.2 mb - 0.00 in0.0 mm 0.00 in0.0 mm
06:45 AM 70.6°F21.4°C 70.0°F21.1°C 98% Calm Calm -- 29.89 in1012.2 mb - 0.00 in0.0 mm 0.00 in0.0 mm
07:00 AM 70.9°F21.6°C 70.3°F21.3°C 98% Calm Calm -- 29.89 in1012.2 mb - 0.00 in0.0 mm 0.00 in0.0 mm
07:15 AM 71.0°F21.7°C 70.4°F21.3°C 98% Calm Calm -- 29.89 in1012.2 mb - 0.00 in0.0 mm 0.00 in0.0 mm
07:30 AM 71.3°F21.8°C 70.7°F21.5°C 98% Calm Calm -- 29.89 in1012.2 mb - 0.00 in0.0 mm 0.00 in0.0 mm
07:45 AM 71.8°F22.1°C 71.5°F21.9°C 99% Calm Calm -- 29.89 in1012.2 mb - 0.00 in0.0 mm 0.00 in0.0 mm
08:00 AM 72.4°F22.4°C 71.8°F22.1°C 98% Calm Calm -- 29.89 in1012.2 mb - 0.00 in0.0 mm 0.00 in0.0 mm
08:15 AM 72.8°F22.7°C 72.2°F22.3°C 98% Calm Calm -- 29.89 in1012.2 mb - 0.00 in0.0 mm 0.00 in0.0 mm
08:30 AM 73.1°F22.8°C 72.8°F22.7°C 99% Calm Calm -- 29.89 in1012.2 mb - 0.00 in0.0 mm 0.00 in0.0 mm
08:45 AM 73.6°F23.1°C 73.0°F22.8°C 98% Calm Calm -- 29.88 in1011.9 mb - 0.00 in0.0 mm 0.00 in0.0 mm
09:00 AM 74.6°F23.7°C 74.3°F23.5°C 99% Calm Calm -- 29.88 in1011.9 mb - 0.00 in0.0 mm 0.00 in0.0 mm
09:15 AM 75.8°F24.3°C 75.5°F24.2°C 99% Calm Calm -- 29.88 in1011.9 mb - 0.00 in0.0 mm 0.00 in0.0 mm
09:30 AM 76.2°F24.6°C 75.6°F24.2°C 98% 0.7 mph ESE1.1 kmh ESE 6.0 mph9.7 kmh 29.88 in1011.9 mb - 0.00 in0.0 mm 0.00 in0.0 mm
09:45 AM 76.2°F24.6°C 75.6°F24.2°C 98% Calm Calm -- 29.88 in1011.9 mb - 0.00 in0.0 mm 0.00 in0.0 mm
10:00 AM 76.0°F24.4°C 75.4°F24.1°C 98% Calm Calm -- 29.88 in1011.9 mb - 0.00 in0.0 mm 0.00 in0.0 mm
10:15 AM 77.0°F25.0°C 76.4°F24.7°C 98% 0.2 mph SSE0.3 kmh SSE 4.0 mph6.4 kmh 29.88 in1011.9 mb - 0.00 in0.0 mm 0.00 in0.0 mm
10:30 AM 77.8°F25.4°C 76.9°F24.9°C 97% 0.9 mph SE1.4 kmh SE 2.0 mph3.2 kmh 29.88 in1011.9 mb - 0.00 in0.0 mm 0.00 in0.0 mm
10:45 AM 78.5°F25.8°C 75.3°F24.1°C 90% 0.4 mph SW0.6 kmh SW 2.0 mph3.2 kmh 29.88 in1011.9 mb - 0.00 in0.0 mm 0.00 in0.0 mm
11:00 AM 79.9°F26.6°C 75.7°F24.3°C 87% 0.2 mph NE0.3 kmh NE -- 29.88 in1011.9 mb - 0.00 in0.0 mm 0.00 in0.0 mm
11:15 AM 81.7°F27.6°C 75.0°F23.9°C 80% 2.2 mph SSE3.5 kmh SSE 5.0 mph8.0 kmh 29.88 in1011.9 mb - 0.00 in0.0 mm 0.00 in0.0 mm
11:30 AM 82.6°F28.1°C 75.8°F24.3°C 80% 1.3 mph SW2.1 kmh SW 5.0 mph8.0 kmh 29.88 in1011.9 mb - 0.00 in0.0 mm 0.00 in0.0 mm
11:45 AM 82.5°F28.1°C 76.1°F24.5°C 81% 2.0 mph SE3.2 kmh SE 6.0 mph9.7 kmh 29.87 in1011.5 mb - 0.00 in0.0 mm 0.00 in0.0 mm
12:00 PM 83.9°F28.8°C 76.6°F24.8°C 79% 2.6 mph E4.2 kmh E 4.0 mph6.4 kmh 29.87 in1011.5 mb - 0.00 in0.0 mm 0.00 in0.0 mm
12:15 PM 84.3°F29.1°C 75.5°F24.2°C 75% 2.9 mph SE4.7 kmh SE 5.0 mph8.0 kmh 29.86 in1011.2 mb - 0.00 in0.0 mm 0.00 in0.0 mm
12:30 PM 84.6°F29.2°C 73.7°F23.2°C 70% 3.8 mph SE6.1 kmh SE 7.0 mph11.3 kmh 29.86 in1011.2 mb - 0.00 in0.0 mm 0.00 in0.0 mm
12:45 PM 83.9°F28.8°C 74.3°F23.5°C 73% 1.2 mph E1.9 kmh E 4.0 mph6.4 kmh 29.86 in1011.2 mb - 0.00 in0.0 mm 0.00 in0.0 mm
01:00 PM 83.4°F28.6°C 73.8°F23.2°C 73% 1.1 mph SE1.8 kmh SE 3.0 mph4.8 kmh 29.85 in1010.8 mb - 0.00 in0.0 mm 0.00 in0.0 mm
01:15 PM 83.3°F28.5°C 75.7°F24.3°C 78% 1.2 mph SE1.9 kmh SE 3.0 mph4.8 kmh 29.85 in1010.8 mb - 0.00 in0.0 mm 0.00 in0.0 mm
01:30 PM 83.2°F28.4°C 74.4°F23.6°C 75% 1.2 mph SE1.9 kmh SE 1.0 mph1.6 kmh 29.85 in1010.8 mb - 0.00 in0.0 mm 0.00 in0.0 mm
01:45 PM 83.6°F28.7°C 74.8°F23.8°C 75% 0.6 mph SSE1.0 kmh SSE 1.0 mph1.6 kmh 29.84 in1010.5 mb - 0.00 in0.0 mm 0.00 in0.0 mm
02:00 PM 84.0°F28.9°C 73.1°F22.8°C 70% 1.2 mph ESE1.9 kmh ESE 4.0 mph6.4 kmh 29.84 in1010.5 mb - 0.00 in0.0 mm 0.00 in0.0 mm
02:15 PM 84.0°F28.9°C 73.5°F23.1°C 71% 2.7 mph SE4.3 kmh SE 5.0 mph8.0 kmh 29.83 in1010.2 mb - 0.00 in0.0 mm 0.00 in0.0 mm
02:30 PM 83.7°F28.7°C 72.5°F22.5°C 69% 2.5 mph E4.0 kmh E 6.0 mph9.7 kmh 29.83 in1010.2 mb - 0.00 in0.0 mm 0.00 in0.0 mm
02:45 PM 84.0°F28.9°C 72.3°F22.4°C 68% 2.5 mph S4.0 kmh S 2.0 mph3.2 kmh 29.83 in1010.2 mb - 0.00 in0.0 mm 0.00 in0.0 mm
03:00 PM 85.1°F29.5°C 72.9°F22.7°C 67% 3.2 mph SE5.1 kmh SE 5.0 mph8.0 kmh 29.82 in1009.8 mb - 0.00 in0.0 mm 0.00 in0.0 mm
03:15 PM 85.4°F29.7°C 71.9°F22.2°C 64% 2.0 mph SE3.2 kmh SE 4.0 mph6.4 kmh 29.82 in1009.8 mb - 0.00 in0.0 mm 0.00 in0.0 mm
03:30 PM 85.0°F29.4°C 70.5°F21.4°C 62% 3.5 mph ESE5.6 kmh ESE 6.0 mph9.7 kmh 29.82 in1009.8 mb - 0.00 in0.0 mm 0.00 in0.0 mm
03:45 PM 85.0°F29.4°C 72.8°F22.7°C 67% 0.9 mph ESE1.4 kmh ESE 3.0 mph4.8 kmh 29.82 in1009.8 mb - 0.00 in0.0 mm 0.00 in0.0 mm
04:00 PM 84.3°F29.1°C 71.7°F22.1°C 66% 1.9 mph S3.1 kmh S 2.0 mph3.2 kmh 29.81 in1009.5 mb - 0.00 in0.0 mm 0.00 in0.0 mm
04:15 PM 84.0°F28.9°C 71.9°F22.2°C 67% 1.2 mph SSE1.9 kmh SSE 2.0 mph3.2 kmh 29.81 in1009.5 mb - 0.00 in0.0 mm 0.00 in0.0 mm
04:30 PM 83.3°F28.5°C 71.6°F22.0°C 68% 0.1 mph S0.2 kmh S 1.0 mph1.6 kmh 29.80 in1009.1 mb - 0.00 in0.0 mm 0.00 in0.0 mm
04:45 PM 82.2°F27.9°C 71.4°F21.9°C 70% 1.8 mph ESE2.9 kmh ESE 7.0 mph11.3 kmh 29.81 in1009.5 mb - 0.00 in0.0 mm 0.00 in0.0 mm
05:00 PM 81.3°F27.4°C 71.0°F21.7°C 71% 0.7 mph S1.1 kmh S 3.0 mph4.8 kmh 29.81 in1009.5 mb - 0.00 in0.0 mm 0.00 in0.0 mm
05:15 PM 80.9°F27.2°C 72.2°F22.3°C 75% 1.2 mph SSE1.9 kmh SSE 5.0 mph8.0 kmh 29.81 in1009.5 mb - 0.00 in0.0 mm 0.00 in0.0 mm
05:30 PM 80.3°F26.8°C 71.2°F21.8°C 74% 0.5 mph ESE0.8 kmh ESE 4.0 mph6.4 kmh 29.81 in1009.5 mb - 0.00 in0.0 mm 0.00 in0.0 mm
05:45 PM 79.3°F26.3°C 71.5°F21.9°C 77% 0.1 mph SE0.2 kmh SE -- 29.82 in1009.8 mb - 0.00 in0.0 mm 0.00 in0.0 mm
06:00 PM 78.5°F25.8°C 71.5°F21.9°C 79% 0.9 mph S1.4 kmh S 3.0 mph4.8 kmh 29.81 in1009.5 mb - 0.00 in0.0 mm 0.00 in0.0 mm
06:15 PM 77.9°F25.5°C 71.2°F21.8°C 80% 1.5 mph SSE2.4 kmh SSE 6.0 mph9.7 kmh 29.81 in1009.5 mb - 0.00 in0.0 mm 0.00 in0.0 mm
06:30 PM 77.5°F25.3°C 71.5°F21.9°C 82% 0.3 mph SW0.5 kmh SW 2.0 mph3.2 kmh 29.81 in1009.5 mb - 0.00 in0.0 mm 0.00 in0.0 mm
06:45 PM 77.1°F25.1°C 71.2°F21.8°C 82% 0.1 mph SE0.2 kmh SE -- 29.81 in1009.5 mb - 0.00 in0.0 mm 0.00 in0.0 mm
07:00 PM 77.0°F25.0°C 71.4°F21.9°C 83% 0.5 mph SW0.8 kmh SW -- 29.80 in1009.1 mb - 0.00 in0.0 mm 0.00 in0.0 mm
07:15 PM 76.8°F24.9°C 71.6°F22.0°C 84% Calm Calm -- 29.80 in1009.1 mb - 0.00 in0.0 mm 0.00 in0.0 mm
07:30 PM 76.3°F24.6°C 70.8°F21.6°C 83% 0.7 mph E1.1 kmh E 4.0 mph6.4 kmh 29.82 in1009.8 mb - 0.00 in0.0 mm 0.00 in0.0 mm
07:45 PM 75.1°F23.9°C 68.5°F20.3°C 80% 0.6 mph S1.0 kmh S 4.0 mph6.4 kmh 29.83 in1010.2 mb - 0.00 in0.0 mm 0.00 in0.0 mm
08:00 PM 74.3°F23.5°C 68.4°F20.2°C 82% Calm Calm -- 29.83 in1010.2 mb - 0.00 in0.0 mm 0.00 in0.0 mm
08:15 PM 73.8°F23.2°C 68.6°F20.3°C 84% Calm Calm -- 29.83 in1010.2 mb - 0.00 in0.0 mm 0.00 in0.0 mm
08:30 PM 73.2°F22.9°C 68.4°F20.2°C 85% Calm Calm -- 29.83 in1010.2 mb - 0.00 in0.0 mm 0.00 in0.0 mm
08:45 PM 72.2°F22.3°C 68.1°F20.1°C 87% Calm Calm -- 29.82 in1009.8 mb - 0.00 in0.0 mm 0.00 in0.0 mm
09:00 PM 71.6°F22.0°C 67.9°F19.9°C 88% Calm Calm -- 29.83 in1010.2 mb - 0.00 in0.0 mm 0.00 in0.0 mm
09:15 PM 71.0°F21.7°C 67.9°F19.9°C 90% Calm Calm -- 29.82 in1009.8 mb - 0.00 in0.0 mm 0.00 in0.0 mm
09:30 PM 70.6°F21.4°C 67.8°F19.9°C 91% Calm Calm -- 29.82 in1009.8 mb - 0.00 in0.0 mm 0.00 in0.0 mm
09:45 PM 70.4°F21.3°C 67.9°F19.9°C 92% Calm Calm -- 29.83 in1010.2 mb - 0.00 in0.0 mm 0.00 in0.0 mm
10:00 PM 70.2°F21.2°C 68.1°F20.1°C 93% Calm Calm -- 29.84 in1010.5 mb - 0.00 in0.0 mm 0.00 in0.0 mm
10:15 PM 70.1°F21.2°C 68.0°F20.0°C 93% Calm Calm -- 29.84 in1010.5 mb - 0.00 in0.0 mm 0.00 in0.0 mm
10:30 PM 70.1°F21.2°C 68.3°F20.2°C 94% Calm Calm -- 29.84 in1010.5 mb - 0.00 in0.0 mm 0.00 in0.0 mm
10:45 PM 70.1°F21.2°C 68.3°F20.2°C 94% Calm Calm -- 29.84 in1010.5 mb - 0.00 in0.0 mm 0.00 in0.0 mm
11:00 PM 70.0°F21.1°C 68.2°F20.1°C 94% Calm Calm -- 29.83 in1010.2 mb - 0.00 in0.0 mm 0.00 in0.0 mm
11:15 PM 69.9°F21.1°C 68.1°F20.1°C 94% Calm Calm -- 29.83 in1010.2 mb - 0.00 in0.0 mm 0.00 in0.0 mm
11:30 PM 69.7°F20.9°C 67.9°F19.9°C 94% Calm Calm -- 29.83 in1010.2 mb - 0.00 in0.0 mm 0.00 in0.0 mm
11:45 PM 69.5°F20.8°C 67.7°F19.8°C 94% Calm Calm -- 29.83 in1010.2 mb - 0.00 in0.0 mm 0.00 in0.0 mm